createdAt,value
2018-07-20T00:00:25.926Z,6.30
2018-07-20T00:02:54.103Z,6.55
2018-07-20T00:05:22.281Z,6.08
2018-07-20T00:07:50.416Z,6.40
2018-07-20T00:10:18.429Z,6.33
2018-07-20T00:12:46.353Z,6.05
2018-07-20T00:15:14.493Z,5.97
2018-07-20T00:17:42.406Z,5.95
2018-07-20T00:20:10.536Z,5.70
2018-07-20T00:22:38.462Z,5.75
2018-07-20T00:25:06.380Z,6.17
2018-07-20T00:27:34.616Z,5.62
2018-07-20T00:30:02.766Z,5.75
2018-07-20T00:32:30.894Z,6.20
2018-07-20T00:34:58.835Z,5.80
2018-07-20T00:37:26.989Z,6.37
2018-07-20T00:39:55.143Z,6.40
2018-07-20T00:42:23.345Z,5.87
2018-07-20T00:44:51.491Z,6.30
2018-07-20T00:47:19.627Z,6.12
2018-07-20T00:49:47.817Z,6.25
2018-07-20T00:52:15.941Z,6.60
2018-07-20T00:54:44.075Z,6.65
2018-07-20T00:57:12.221Z,6.15
2018-07-20T00:59:40.204Z,6.37
2018-07-20T01:02:08.279Z,6.30
2018-07-20T01:04:36.243Z,6.22
2018-07-20T01:07:04.170Z,6.58
2018-07-20T01:09:32.098Z,6.20
2018-07-20T01:12:00.036Z,6.60
2018-07-20T01:14:28.192Z,6.53
2018-07-20T01:16:56.355Z,6.65
2018-07-20T01:19:24.530Z,6.62
2018-07-20T01:21:52.741Z,6.62
2018-07-20T01:24:20.878Z,6.42
2018-07-20T01:26:49.360Z,6.40
2018-07-20T01:29:17.485Z,6.85
2018-07-20T01:31:45.403Z,7.15
2018-07-20T01:34:13.554Z,7.55
2018-07-20T01:36:41.673Z,7.90
2018-07-20T01:39:10.096Z,7.10
2018-07-20T01:41:38.291Z,7.50
2018-07-20T01:44:06.272Z,8.00
2018-07-20T01:46:34.193Z,7.45
2018-07-20T01:49:02.377Z,7.28
2018-07-20T01:51:30.293Z,7.10
2018-07-20T01:53:58.211Z,6.97
2018-07-20T01:56:26.455Z,7.67
2018-07-20T01:58:54.369Z,7.03
2018-07-20T02:01:22.335Z,7.40
2018-07-20T02:03:50.413Z,7.03
2018-07-20T02:06:18.564Z,6.80
2018-07-20T02:08:46.764Z,7.08
2018-07-20T02:11:14.909Z,6.85
2018-07-20T02:13:43.028Z,7.47
2018-07-20T02:16:11.148Z,7.47
2018-07-20T02:18:39.292Z,7.30
2018-07-20T02:21:07.408Z,7.28
2018-07-20T02:23:35.322Z,7.12
2018-07-20T02:26:03.481Z,6.85
2018-07-20T02:28:31.403Z,7.50
2018-07-20T02:30:59.569Z,6.55
2018-07-20T02:33:27.503Z,6.78
2018-07-20T02:35:55.627Z,7.00
2018-07-20T02:38:23.885Z,6.60
2018-07-20T02:40:51.906Z,6.78
2018-07-20T02:43:19.833Z,6.72
2018-07-20T02:45:47.862Z,7.97
2018-07-20T02:48:16.075Z,6.50
2018-07-20T02:50:44.225Z,7.15
2018-07-20T02:53:12.202Z,7.25
2018-07-20T02:55:40.413Z,7.10
2018-07-20T02:58:08.574Z,7.47
2018-07-20T03:00:36.468Z,7.12
2018-07-20T03:03:04.472Z,7.58
2018-07-20T03:05:32.380Z,7.60
2018-07-20T03:08:00.504Z,6.87
2018-07-20T03:10:28.595Z,7.67
2018-07-20T03:12:56.535Z,7.55
2018-07-20T03:15:24.663Z,7.47
2018-07-20T03:17:52.551Z,7.22
2018-07-20T03:20:20.693Z,7.60
2018-07-20T03:22:48.785Z,8.85
2018-07-20T03:25:16.895Z,8.23
2018-07-20T03:27:45.016Z,7.92
2018-07-20T03:30:13.139Z,8.00
2018-07-20T03:32:41.037Z,8.15
2018-07-20T03:35:09.123Z,8.33
2018-07-20T03:38:32.570Z,7.97
2018-07-20T03:41:00.464Z,8.50
2018-07-20T03:43:28.604Z,8.03
2018-07-20T03:45:56.509Z,7.85
2018-07-20T03:48:24.624Z,7.50
2018-07-20T03:50:52.537Z,7.00
2018-07-20T03:53:20.663Z,7.65
2018-07-20T03:55:48.788Z,7.50
2018-07-20T03:58:16.930Z,7.05
2018-07-20T04:00:45.064Z,7.37
2018-07-20T04:03:13.234Z,6.97
2018-07-20T04:05:41.364Z,7.10
2018-07-20T04:08:09.513Z,7.45
2018-07-20T04:10:37.644Z,7.05
2018-07-20T04:13:05.536Z,6.80
2018-07-20T04:15:33.494Z,6.60
2018-07-20T04:18:01.415Z,6.58
2018-07-20T04:20:29.545Z,6.92
2018-07-20T04:22:57.662Z,6.33
2018-07-20T04:25:25.559Z,6.05
2018-07-20T04:27:53.779Z,6.00
2018-07-20T04:30:21.980Z,6.60
2018-07-20T04:32:50.127Z,6.42
2018-07-20T04:35:18.241Z,6.15
2018-07-20T04:37:46.364Z,6.05
2018-07-20T04:40:14.492Z,6.00
2018-07-20T04:42:42.616Z,6.58
2018-07-20T04:45:10.744Z,6.10
2018-07-20T04:47:38.904Z,6.00
2018-07-20T04:50:06.804Z,6.10
2018-07-20T04:52:34.964Z,5.70
2018-07-20T04:55:02.902Z,6.00
2018-07-20T04:57:30.833Z,6.03
2018-07-20T04:59:58.758Z,6.15
2018-07-20T05:02:26.900Z,5.97
2018-07-20T05:04:55.026Z,6.20
2018-07-20T05:07:23.209Z,5.67
2018-07-20T05:09:51.349Z,6.37
2018-07-20T05:12:19.453Z,6.72
2018-07-20T05:14:47.605Z,6.08
2018-07-20T05:17:15.759Z,6.20
2018-07-20T05:19:43.680Z,6.20
2018-07-20T05:22:11.589Z,5.72
2018-07-20T05:24:39.707Z,5.50
2018-07-20T05:27:07.607Z,6.67
2018-07-20T05:29:35.756Z,6.03
2018-07-20T05:32:03.895Z,5.87
2018-07-20T05:34:32.014Z,5.92
2018-07-20T05:37:00.154Z,5.85
2018-07-20T05:39:28.284Z,5.78
2018-07-20T05:41:56.405Z,7.47
2018-07-20T05:44:24.516Z,6.22
2018-07-20T05:46:52.724Z,5.75
2018-07-20T05:49:20.874Z,6.37
2018-07-20T05:51:49.004Z,6.17
2018-07-20T05:54:17.111Z,5.85
2018-07-20T05:56:45.297Z,5.70
2018-07-20T05:59:13.430Z,6.00
2018-07-20T06:01:41.572Z,5.97
2018-07-20T06:04:09.503Z,5.45
2018-07-20T06:06:37.598Z,6.47
2018-07-20T06:09:07.531Z,5.50
2018-07-20T06:11:35.472Z,5.28
2018-07-20T06:14:03.443Z,5.90
2018-07-20T06:16:31.539Z,6.55
2018-07-20T06:18:59.716Z,6.17
2018-07-20T06:21:27.907Z,6.53
2018-07-20T06:23:56.018Z,6.53
2018-07-20T06:26:24.297Z,6.03
2018-07-20T06:28:52.405Z,5.97
2018-07-20T06:31:20.633Z,5.45
2018-07-20T06:33:48.585Z,5.55
2018-07-20T06:36:16.708Z,5.15
2018-07-20T06:38:44.603Z,5.20
2018-07-20T06:41:12.756Z,6.85
2018-07-20T06:43:40.962Z,5.10
2018-07-20T06:46:08.896Z,5.10
2018-07-20T06:48:36.824Z,5.08
2018-07-20T06:51:04.762Z,4.83
2018-07-20T06:53:32.684Z,4.85
2018-07-20T06:56:00.826Z,4.55
2018-07-20T06:58:29.042Z,5.03
2018-07-20T07:00:57.150Z,5.00
2018-07-20T07:03:25.329Z,5.12
2018-07-20T07:05:53.246Z,4.22
2018-07-20T07:08:21.255Z,4.90
2018-07-20T07:10:49.161Z,4.90
2018-07-20T07:13:17.139Z,4.75
2018-07-20T07:15:45.035Z,6.35
2018-07-20T07:18:13.224Z,5.37
2018-07-20T07:20:41.501Z,4.12
2018-07-20T07:23:09.621Z,4.25
2018-07-20T07:25:37.730Z,4.60
2018-07-20T07:28:05.905Z,5.12
2018-07-20T07:30:34.056Z,5.12
2018-07-20T07:33:02.200Z,4.17
2018-07-20T07:35:30.292Z,4.33
2018-07-20T07:37:58.438Z,4.90
2018-07-20T07:40:26.365Z,4.28
2018-07-20T07:42:54.265Z,4.10
2018-07-20T07:45:22.404Z,4.70
2018-07-20T07:47:50.326Z,3.77
2018-07-20T07:50:18.255Z,4.33
2018-07-20T07:52:46.407Z,3.95
2018-07-20T07:55:14.546Z,3.92
2018-07-20T07:57:42.801Z,3.58
2018-07-20T08:00:10.744Z,3.85
2018-07-20T08:02:38.859Z,4.90
2018-07-20T08:05:06.985Z,4.17
2018-07-20T08:07:34.879Z,4.22
2018-07-20T08:10:03.036Z,4.45
2018-07-20T08:12:30.751Z,4.15
2018-07-20T08:14:58.885Z,4.30
2018-07-20T08:17:27.045Z,4.28
2018-07-20T08:19:55.214Z,4.33
2018-07-20T08:22:24.040Z,4.45
2018-07-20T08:24:51.989Z,3.98
2018-07-20T08:27:20.100Z,4.20
2018-07-20T08:29:48.026Z,3.85
2018-07-20T08:32:16.170Z,4.03
2018-07-20T08:34:44.079Z,4.47
2018-07-20T08:37:11.986Z,3.75
2018-07-20T08:39:39.945Z,5.08
2018-07-20T08:42:08.026Z,3.62
2018-07-20T08:44:35.958Z,4.05
2018-07-20T08:47:03.879Z,4.33
2018-07-20T08:49:32.072Z,4.35
2018-07-20T08:52:00.193Z,3.60
2018-07-20T08:54:28.123Z,3.77
2018-07-20T08:56:56.042Z,4.62
2018-07-20T08:59:23.986Z,3.70
2018-07-20T09:01:51.955Z,3.72
2018-07-20T09:04:19.880Z,3.90
2018-07-20T09:06:47.811Z,3.65
2018-07-20T09:09:15.956Z,4.03
2018-07-20T09:11:43.966Z,3.90
2018-07-20T09:14:12.108Z,3.98
2018-07-20T09:16:40.256Z,4.30
2018-07-20T09:19:08.389Z,4.50
2018-07-20T09:21:36.510Z,4.78
2018-07-20T09:24:04.655Z,4.00
2018-07-20T09:26:32.568Z,4.10
2018-07-20T09:29:00.522Z,3.95
2018-07-20T09:31:28.442Z,4.20
2018-07-20T09:33:56.365Z,4.15
2018-07-20T09:36:24.292Z,4.58
2018-07-20T09:38:52.470Z,3.85
2018-07-20T09:41:20.609Z,3.83
2018-07-20T09:43:48.585Z,3.83
2018-07-20T09:46:17.289Z,3.70
2018-07-20T09:48:45.426Z,3.77
2018-07-20T09:51:13.576Z,3.90
2018-07-20T09:53:41.708Z,3.62
2018-07-20T09:56:09.860Z,3.77
2018-07-20T09:58:38.020Z,3.90
2018-07-20T10:01:06.379Z,3.50
2018-07-20T10:03:34.311Z,3.62
2018-07-20T10:06:02.470Z,3.98
2018-07-20T10:08:30.379Z,3.70
2018-07-20T10:10:58.502Z,3.45
2018-07-20T10:13:26.412Z,3.50
2018-07-20T10:15:54.576Z,4.12
2018-07-20T10:18:22.486Z,4.00
2018-07-20T10:20:50.600Z,3.90
2018-07-20T10:23:18.539Z,3.40
2018-07-20T10:25:46.677Z,3.65
2018-07-20T10:28:14.822Z,3.17
2018-07-20T10:30:42.992Z,3.22
2018-07-20T10:33:11.147Z,3.15
2018-07-20T10:35:39.276Z,3.37
2018-07-20T10:38:07.410Z,4.00
2018-07-20T10:40:35.517Z,3.30
2018-07-20T10:43:03.668Z,3.92
2018-07-20T10:45:31.592Z,3.55
2018-07-20T10:47:59.528Z,3.33
2018-07-20T10:50:27.432Z,3.08
2018-07-20T10:52:55.339Z,3.02
2018-07-20T10:55:23.257Z,3.75
2018-07-20T10:57:51.189Z,3.40
2018-07-20T11:00:19.132Z,2.98
2018-07-20T11:02:47.262Z,3.22
2018-07-20T11:05:15.419Z,3.00
2018-07-20T11:07:43.368Z,3.62
2018-07-20T11:10:11.515Z,3.02
2018-07-20T11:12:39.417Z,3.17
2018-07-20T11:15:07.539Z,2.98
2018-07-20T11:17:35.642Z,3.30
2018-07-20T11:20:03.900Z,3.55
2018-07-20T11:22:32.022Z,3.20
2018-07-20T11:24:59.954Z,3.10
2018-07-20T11:27:27.848Z,3.17
2018-07-20T11:29:56.010Z,3.37
2018-07-20T11:32:23.938Z,3.80
2018-07-20T11:34:51.917Z,3.83
2018-07-20T11:37:20.087Z,3.10
2018-07-20T11:39:48.036Z,3.35
2018-07-20T11:42:16.155Z,3.22
2018-07-20T11:44:44.044Z,3.10
2018-07-20T11:47:12.285Z,3.40
2018-07-20T11:49:40.417Z,3.45
2018-07-20T11:52:08.335Z,4.33
2018-07-20T11:54:36.275Z,4.60
2018-07-20T11:57:04.395Z,3.20
2018-07-20T11:59:32.324Z,3.37
2018-07-20T12:02:00.273Z,3.40
2018-07-20T12:04:28.387Z,3.37
2018-07-20T12:06:56.285Z,3.72
2018-07-20T12:09:24.428Z,3.12
2018-07-20T12:11:52.316Z,3.50
2018-07-20T12:14:20.225Z,3.90
2018-07-20T12:16:48.358Z,3.60
2018-07-20T12:19:16.277Z,3.95
2018-07-20T12:21:44.194Z,4.53
2018-07-20T12:24:12.128Z,6.17
2018-07-20T12:26:40.228Z,4.17
2018-07-20T12:29:08.154Z,4.40
2018-07-20T12:31:36.272Z,3.80
2018-07-20T12:34:04.435Z,3.92
2018-07-20T12:36:32.569Z,3.65
2018-07-20T12:39:00.710Z,3.95
2018-07-20T12:41:28.845Z,3.52
2018-07-20T12:43:56.813Z,3.52
2018-07-20T12:46:24.729Z,3.35
2018-07-20T12:48:52.844Z,3.45
2018-07-20T12:51:20.734Z,3.52
2018-07-20T12:53:48.912Z,4.37
2018-07-20T12:56:16.828Z,3.95
2018-07-20T12:58:44.817Z,3.87
2018-07-20T13:01:12.660Z,4.25
2018-07-20T13:03:40.768Z,5.15
2018-07-20T13:06:08.660Z,4.40
2018-07-20T13:08:36.791Z,4.58
2018-07-20T13:11:04.728Z,4.40
2018-07-20T13:13:32.641Z,4.58
2018-07-20T13:16:00.620Z,4.83
2018-07-20T13:18:28.539Z,4.28
2018-07-20T13:20:56.694Z,4.05
2018-07-20T13:23:24.637Z,5.00
2018-07-20T13:25:52.769Z,4.67
2018-07-20T13:28:21.015Z,4.22
2018-07-20T13:30:49.194Z,4.40
2018-07-20T13:33:17.331Z,4.00
2018-07-20T13:35:45.451Z,3.98
2018-07-20T13:38:13.638Z,3.90
2018-07-20T13:40:41.807Z,4.15
2018-07-20T13:43:09.948Z,4.42
2018-07-20T13:45:38.102Z,4.45
2018-07-20T13:48:06.083Z,3.95
2018-07-20T13:50:33.991Z,4.22
2018-07-20T13:53:01.960Z,4.15
2018-07-20T13:55:30.076Z,4.17
2018-07-20T13:57:58.236Z,4.67
2018-07-20T14:00:26.402Z,5.12
2018-07-20T14:02:54.582Z,4.70
2018-07-20T14:05:22.724Z,4.40
2018-07-20T14:07:50.912Z,4.17
2018-07-20T14:10:19.053Z,3.40
2018-07-20T14:12:47.241Z,3.70
2018-07-20T14:15:15.367Z,4.55
2018-07-20T14:17:43.531Z,4.60
2018-07-20T14:20:11.730Z,4.00
2018-07-20T14:22:39.742Z,3.52
2018-07-20T14:25:07.659Z,3.87
2018-07-20T14:27:35.601Z,4.00
2018-07-20T14:30:03.777Z,4.03
2018-07-20T14:32:31.775Z,3.50
2018-07-20T14:34:59.923Z,4.08
2018-07-20T14:37:27.828Z,3.90
2018-07-20T14:39:56.033Z,4.33
2018-07-20T14:42:24.162Z,4.37
2018-07-20T14:44:52.329Z,4.15
2018-07-20T14:47:20.491Z,4.53
2018-07-20T14:49:48.656Z,4.10
2018-07-20T14:52:16.830Z,6.65
2018-07-20T14:54:45.038Z,4.45
2018-07-20T14:57:12.952Z,4.85
2018-07-20T14:59:41.091Z,5.30
2018-07-20T15:02:09.532Z,6.97
2018-07-20T15:04:37.691Z,5.72
2018-07-20T15:07:05.780Z,5.15
2018-07-20T15:09:33.767Z,3.87
2018-07-20T15:12:01.871Z,4.22
2018-07-20T15:14:29.810Z,5.10
2018-07-20T15:16:57.932Z,5.15
2018-07-20T15:19:25.876Z,4.80
2018-07-20T15:21:53.994Z,4.50
2018-07-20T15:24:22.097Z,4.40
2018-07-20T15:26:50.258Z,4.72
2018-07-20T15:29:18.403Z,4.17
2018-07-20T15:31:46.561Z,3.92
2018-07-20T15:34:15.328Z,4.28
2018-07-20T15:36:43.457Z,4.22
2018-07-20T15:39:12.129Z,4.60
2018-07-20T15:41:40.242Z,5.58
2018-07-20T15:44:08.240Z,4.67
2018-07-20T15:46:36.474Z,4.17
2018-07-20T15:49:04.730Z,4.50
2018-07-20T15:53:35.050Z,4.97
2018-07-20T15:54:01.019Z,4.28
2018-07-20T15:56:29.099Z,4.40
2018-07-20T15:58:57.289Z,5.42
2018-07-20T16:01:25.212Z,5.10
2018-07-20T16:03:53.340Z,4.80
2018-07-20T16:06:21.279Z,4.45
2018-07-20T16:08:49.427Z,4.28
2018-07-20T16:11:17.356Z,4.33
2018-07-20T16:13:45.247Z,4.47
2018-07-20T16:16:13.219Z,4.28
2018-07-20T16:18:41.115Z,4.42
2018-07-20T16:21:09.223Z,4.80
2018-07-20T16:23:37.177Z,4.30
2018-07-20T16:26:06.236Z,4.62
2018-07-20T16:28:34.327Z,7.47
2018-07-20T16:31:02.456Z,6.90
2018-07-20T16:33:30.588Z,5.90
2018-07-20T16:35:58.816Z,4.72
2018-07-20T16:38:26.706Z,4.30
2018-07-20T16:40:54.855Z,4.25
2018-07-20T16:43:22.764Z,4.35
2018-07-20T16:45:50.933Z,4.42
2018-07-20T16:48:19.068Z,4.37
2018-07-20T16:50:47.194Z,4.75
2018-07-20T16:53:15.358Z,7.28
2018-07-20T16:55:43.565Z,4.37
2018-07-20T16:58:11.609Z,5.65
2018-07-20T17:00:39.559Z,5.60
2018-07-20T17:03:07.708Z,6.95
2018-07-20T17:05:35.820Z,5.35
2018-07-20T17:08:03.763Z,8.95
2018-07-20T17:10:31.725Z,5.30
2018-07-20T17:12:59.854Z,4.33
2018-07-20T17:15:27.774Z,4.80
2018-07-20T17:17:55.918Z,4.62
2018-07-20T17:20:23.884Z,5.53
2018-07-20T17:22:52.022Z,5.45
2018-07-20T17:25:19.967Z,4.75
2018-07-20T17:27:48.119Z,5.10
2018-07-20T17:30:16.466Z,5.20
2018-07-20T17:32:44.624Z,4.70
2018-07-20T17:35:12.577Z,4.50
2018-07-20T17:37:41.396Z,9.10
2018-07-20T17:40:09.498Z,5.08
2018-07-20T17:42:37.400Z,4.28
2018-07-20T17:45:05.478Z,4.53
2018-07-20T17:47:33.378Z,3.87
2018-07-20T17:50:01.516Z,4.70
2018-07-20T17:52:29.427Z,4.05
2018-07-20T17:54:57.535Z,4.50
2018-07-20T17:57:25.678Z,3.67
2018-07-20T17:59:53.859Z,4.35
2018-07-20T18:02:22.026Z,3.90
2018-07-20T18:04:50.122Z,4.00
2018-07-20T18:07:18.240Z,4.55
2018-07-20T18:09:46.223Z,4.25
2018-07-20T18:12:14.140Z,3.85
2018-07-20T18:14:42.303Z,4.12
2018-07-20T18:17:10.452Z,4.45
2018-07-20T18:19:38.408Z,4.70
2018-07-20T18:22:06.550Z,4.35
2018-07-20T18:24:34.461Z,3.60
2018-07-20T18:27:02.621Z,3.50
2018-07-20T18:29:30.742Z,3.60
2018-07-20T18:31:58.871Z,3.35
2018-07-20T18:34:26.790Z,3.27
2018-07-20T18:36:54.912Z,3.47
2018-07-20T18:39:22.820Z,3.20
2018-07-20T18:41:51.021Z,3.20
2018-07-20T18:44:19.158Z,3.37
2018-07-20T18:46:47.091Z,3.15
2018-07-20T18:49:15.237Z,3.22
2018-07-20T18:51:43.391Z,3.12
2018-07-20T18:54:11.309Z,2.92
2018-07-20T18:56:39.197Z,3.00
2018-07-20T18:59:07.355Z,3.55
2018-07-20T19:01:35.307Z,3.55
2018-07-20T19:04:03.224Z,3.08
2018-07-20T19:06:31.357Z,2.85
2018-07-20T19:08:59.493Z,2.80
2018-07-20T19:11:27.412Z,2.67
2018-07-20T19:13:55.528Z,2.98
2018-07-20T19:16:23.658Z,2.67
2018-07-20T19:18:51.828Z,2.75
2018-07-20T19:21:19.743Z,2.77
2018-07-20T19:23:47.949Z,2.60
2018-07-20T19:26:15.834Z,2.72
2018-07-20T19:28:43.755Z,2.72
2018-07-20T19:31:11.926Z,3.62
2018-07-20T19:33:39.838Z,3.20
2018-07-20T19:36:08.012Z,3.37
2018-07-20T19:38:36.165Z,3.52
2018-07-20T19:41:04.295Z,3.10
2018-07-20T19:43:32.428Z,3.30
2018-07-20T19:46:00.573Z,3.05
2018-07-20T19:48:28.691Z,2.70
2018-07-20T19:50:56.861Z,2.92
2018-07-20T19:53:25.231Z,2.62
2018-07-20T19:55:53.159Z,2.85
2018-07-20T19:58:21.252Z,3.00
2018-07-20T20:00:49.408Z,2.98
2018-07-20T20:03:17.327Z,2.90
2018-07-20T20:05:45.259Z,3.10
2018-07-20T20:08:13.399Z,3.55
2018-07-20T20:10:41.294Z,3.00
2018-07-20T20:13:09.452Z,2.92
2018-07-20T20:15:37.614Z,3.50
2018-07-20T20:18:06.148Z,2.92
2018-07-20T20:20:34.088Z,3.02
2018-07-20T20:23:02.026Z,3.02
2018-07-20T20:25:30.906Z,3.20
2018-07-20T20:27:59.003Z,3.27
2018-07-20T20:30:26.997Z,4.67
2018-07-20T20:32:55.160Z,3.67
2018-07-20T20:35:24.174Z,3.22
2018-07-20T20:37:52.385Z,3.20
2018-07-20T20:40:20.306Z,3.60
2018-07-20T20:42:48.356Z,3.50
2018-07-20T20:45:16.493Z,3.15
2018-07-20T20:47:44.399Z,3.02
2018-07-20T20:50:12.517Z,3.02
2018-07-20T20:52:40.668Z,3.10
2018-07-20T20:55:08.859Z,3.40
2018-07-20T20:57:36.973Z,3.37
2018-07-20T21:00:05.061Z,3.10
2018-07-20T21:02:33.240Z,3.62
2018-07-20T21:05:01.354Z,2.90
2018-07-20T21:07:29.497Z,3.42
2018-07-20T21:09:57.618Z,3.05
2018-07-20T21:12:25.576Z,3.20
2018-07-20T21:14:53.701Z,3.17
2018-07-20T21:17:21.596Z,3.45
2018-07-20T21:19:49.744Z,3.30
2018-07-20T21:22:17.663Z,2.72
2018-07-20T21:24:45.820Z,3.05
2018-07-20T21:27:13.977Z,3.15
2018-07-20T21:29:42.127Z,3.25
2018-07-20T21:32:10.494Z,3.40
2018-07-20T21:34:38.686Z,3.60
2018-07-20T21:37:06.950Z,3.20
2018-07-20T21:39:35.106Z,3.00
2018-07-20T21:42:03.284Z,2.87
2018-07-20T21:44:31.387Z,2.83
2018-07-20T21:46:59.523Z,3.25
2018-07-20T21:49:27.637Z,2.72
2018-07-20T21:51:55.773Z,2.50
2018-07-20T21:54:24.803Z,3.15
2018-07-20T21:56:52.749Z,3.45
2018-07-20T21:59:20.981Z,2.98
2018-07-20T22:01:49.159Z,3.90
2018-07-20T22:04:17.280Z,3.27
2018-07-20T22:06:45.413Z,3.12
2018-07-20T22:09:13.533Z,2.90
2018-07-20T22:11:41.665Z,2.83
2018-07-20T22:14:09.812Z,2.92
2018-07-20T22:16:37.955Z,3.00
2018-07-20T22:19:05.905Z,3.15
2018-07-20T22:21:34.226Z,3.00
2018-07-20T22:24:02.134Z,3.15
2018-07-20T22:26:30.272Z,3.20
2018-07-20T22:28:58.199Z,3.33
2018-07-20T22:31:26.120Z,3.85
2018-07-20T22:33:54.061Z,2.85
2018-07-20T22:36:22.228Z,2.90
2018-07-20T22:38:50.355Z,3.52
2018-07-20T22:41:18.515Z,3.58
2018-07-20T22:43:46.750Z,3.00
2018-07-20T22:46:14.887Z,3.08
2018-07-20T22:48:43.069Z,3.08
2018-07-20T22:51:10.964Z,2.70
2018-07-20T22:53:39.156Z,2.80
2018-07-20T22:56:07.059Z,3.00
2018-07-20T22:58:35.212Z,3.08
2018-07-20T23:01:03.164Z,2.85
2018-07-20T23:03:31.104Z,3.00
2018-07-20T23:05:59.052Z,3.05
2018-07-20T23:08:27.160Z,3.17
2018-07-20T23:10:55.330Z,3.20
2018-07-20T23:13:23.482Z,3.70
2018-07-20T23:15:51.656Z,3.15
2018-07-20T23:18:19.783Z,3.00
2018-07-20T23:20:47.902Z,3.02
2018-07-20T23:23:16.031Z,3.45
2018-07-20T23:25:44.151Z,3.30
2018-07-20T23:28:12.061Z,3.22
2018-07-20T23:30:40.164Z,3.52
2018-07-20T23:33:08.105Z,3.77
2018-07-20T23:35:36.237Z,4.22
2018-07-20T23:38:04.431Z,3.30
2018-07-20T23:40:32.572Z,3.50
2018-07-20T23:43:00.487Z,3.70
2018-07-20T23:45:28.607Z,3.58
2018-07-20T23:47:56.647Z,3.58
2018-07-20T23:50:24.563Z,3.47
2018-07-20T23:52:52.718Z,4.00
2018-07-20T23:55:20.851Z,3.72
2018-07-20T23:57:48.990Z,3.87
